createdAt,value
2018-03-04T00:02:06.717Z,45.53
2018-03-04T00:04:35.530Z,52.83
2018-03-04T00:07:04.676Z,52.10
2018-03-04T00:09:34.189Z,42.40
2018-03-04T00:12:03.244Z,54.37
2018-03-04T00:14:32.376Z,47.73
2018-03-04T00:17:01.463Z,42.50
2018-03-04T00:19:30.557Z,43.40
2018-03-04T00:21:59.494Z,48.27
2018-03-04T00:24:28.502Z,45.70
2018-03-04T00:26:57.436Z,47.40
2018-03-04T00:29:26.340Z,41.60
2018-03-04T00:31:55.332Z,39.70
2018-03-04T00:34:24.316Z,42.10
2018-03-04T00:36:53.418Z,46.87
2018-03-04T00:39:22.279Z,50.17
2018-03-04T00:41:51.386Z,49.67
2018-03-04T00:44:20.476Z,45.63
2018-03-04T00:46:49.407Z,43.00
2018-03-04T00:49:18.167Z,47.40
2018-03-04T00:51:47.021Z,44.63
2018-03-04T00:54:15.791Z,47.30
2018-03-04T00:56:44.711Z,41.70
2018-03-04T00:59:14.034Z,41.60
2018-03-04T01:01:43.553Z,42.20
2018-03-04T01:04:12.674Z,44.07
2018-03-04T01:06:41.477Z,44.83
2018-03-04T01:09:10.422Z,44.00
2018-03-04T01:11:39.517Z,42.50
2018-03-04T01:14:15.681Z,55.40
2018-03-04T01:16:44.470Z,50.27
2018-03-04T01:19:13.261Z,49.90
2018-03-04T01:21:42.408Z,45.77
2018-03-04T01:24:11.245Z,53.10
2018-03-04T01:26:40.058Z,43.87
2018-03-04T01:29:08.926Z,44.57
2018-03-04T01:31:37.663Z,48.77
2018-03-04T01:34:06.596Z,60.60
2018-03-04T01:36:35.687Z,44.23
2018-03-04T01:39:04.846Z,44.17
2018-03-04T01:41:33.605Z,49.13
2018-03-04T01:44:02.449Z,44.47
2018-03-04T01:47:34.838Z,47.90
2018-03-04T01:50:03.802Z,45.03
2018-03-04T01:52:32.520Z,46.53
2018-03-04T01:55:01.511Z,54.33
2018-03-04T01:57:30.413Z,53.53
2018-03-04T01:59:59.177Z,45.83
2018-03-04T02:02:27.992Z,47.47
2018-03-04T02:04:56.866Z,51.63
2018-03-04T02:07:25.973Z,50.33
2018-03-04T02:09:54.883Z,45.20
2018-03-04T02:12:23.957Z,43.73
2018-03-04T02:14:53.018Z,42.43
2018-03-04T02:17:21.880Z,50.47
2018-03-04T02:19:50.731Z,44.77
2018-03-04T02:22:19.714Z,43.50
2018-03-04T02:24:48.479Z,46.00
2018-03-04T02:27:17.206Z,45.57
2018-03-04T02:29:46.182Z,53.87
2018-03-04T02:32:14.993Z,45.40
2018-03-04T02:35:46.868Z,51.63
2018-03-04T02:38:15.930Z,54.93
2018-03-04T02:40:44.848Z,53.40
2018-03-04T02:43:13.622Z,46.43
2018-03-04T02:45:43.002Z,50.10
2018-03-04T02:48:12.116Z,51.13
2018-03-04T02:50:41.201Z,49.03
2018-03-04T02:53:10.424Z,54.17
2018-03-04T02:55:39.413Z,42.70
2018-03-04T02:58:08.202Z,46.53
2018-03-04T03:00:36.910Z,51.10
2018-03-04T03:03:05.861Z,49.70
2018-03-04T03:05:34.746Z,51.20
2018-03-04T03:08:03.855Z,48.33
2018-03-04T03:10:32.735Z,53.57
2018-03-04T03:13:01.654Z,51.10
2018-03-04T03:15:31.141Z,49.27
2018-03-04T03:17:59.897Z,46.07
2018-03-04T03:20:28.869Z,48.93
2018-03-04T03:22:58.231Z,50.30
2018-03-04T03:25:27.306Z,54.30
2018-03-04T03:27:56.086Z,52.47
2018-03-04T03:30:24.956Z,49.37
2018-03-04T03:32:53.626Z,51.93
2018-03-04T03:35:22.733Z,52.53
2018-03-04T03:37:51.961Z,56.40
2018-03-04T03:40:20.888Z,48.53
2018-03-04T03:42:49.784Z,56.33
2018-03-04T03:45:18.820Z,54.07
2018-03-04T03:47:48.133Z,48.63
2018-03-04T03:50:17.030Z,51.00
2018-03-04T03:52:46.240Z,50.40
2018-03-04T03:55:15.229Z,61.90
2018-03-04T03:57:44.314Z,57.70
2018-03-04T04:00:13.224Z,50.03
2018-03-04T04:02:41.977Z,56.83
2018-03-04T04:05:11.005Z,60.70
2018-03-04T04:07:39.777Z,51.67
2018-03-04T04:10:08.562Z,48.77
2018-03-04T04:12:37.668Z,52.20
2018-03-04T04:15:06.757Z,48.60
2018-03-04T04:17:35.643Z,53.40
2018-03-04T04:20:04.814Z,61.87
2018-03-04T04:22:33.518Z,52.07
2018-03-04T04:25:02.259Z,53.90
2018-03-04T04:27:31.410Z,61.00
2018-03-04T04:30:00.362Z,51.47
2018-03-04T04:32:29.126Z,53.77
2018-03-04T04:34:58.201Z,54.00
2018-03-04T04:37:27.189Z,53.40
2018-03-04T04:39:55.992Z,55.47
2018-03-04T04:42:25.226Z,55.37
2018-03-04T04:44:53.934Z,55.87
2018-03-04T04:47:22.768Z,53.97
2018-03-04T04:49:51.843Z,44.97
2018-03-04T04:52:20.721Z,52.07
2018-03-04T04:54:49.405Z,46.43
2018-03-04T04:57:18.387Z,53.33
2018-03-04T04:59:47.194Z,52.13
2018-03-04T05:05:17.943Z,55.97
2018-03-04T05:07:46.846Z,55.03
2018-03-04T05:10:15.728Z,55.00
2018-03-04T05:12:44.830Z,53.53
2018-03-04T05:15:13.715Z,58.03
2018-03-04T05:17:42.744Z,55.53
2018-03-04T05:20:11.909Z,51.07
2018-03-04T05:22:41.114Z,56.07
2018-03-04T05:25:10.207Z,54.03
2018-03-04T05:27:38.987Z,56.13
2018-03-04T05:30:07.870Z,58.03
2018-03-04T05:32:36.763Z,53.57
2018-03-04T05:35:05.825Z,50.57
2018-03-04T05:37:34.734Z,51.20
2018-03-04T05:40:03.725Z,51.57
2018-03-04T05:42:32.743Z,49.27
2018-03-04T05:45:01.804Z,59.73
2018-03-04T05:47:30.766Z,54.93
2018-03-04T05:49:59.823Z,50.00
2018-03-04T05:52:28.774Z,48.93
2018-03-04T05:54:57.801Z,54.23
2018-03-04T05:57:27.079Z,53.00
2018-03-04T05:59:55.991Z,55.30
2018-03-04T06:02:25.089Z,58.97
2018-03-04T06:04:54.179Z,52.27
2018-03-04T06:07:23.062Z,55.37
2018-03-04T06:09:51.903Z,58.00
2018-03-04T06:12:20.876Z,49.03
2018-03-04T06:14:49.655Z,59.87
2018-03-04T06:17:18.642Z,54.80
2018-03-04T06:19:47.731Z,55.33
2018-03-04T06:22:16.837Z,63.00
2018-03-04T06:24:46.243Z,56.80
2018-03-04T06:27:15.161Z,50.03
2018-03-04T06:29:44.213Z,53.40
2018-03-04T06:32:13.314Z,55.30
2018-03-04T06:34:42.200Z,56.30
2018-03-04T06:37:11.087Z,59.60
2018-03-04T06:39:39.912Z,55.30
2018-03-04T06:42:09.088Z,51.43
2018-03-04T06:44:38.347Z,42.30
2018-03-04T06:47:07.245Z,55.80
2018-03-04T06:49:36.324Z,58.83
2018-03-04T06:52:05.204Z,52.87
2018-03-04T06:54:34.156Z,54.93
2018-03-04T06:57:03.667Z,54.30
2018-03-04T06:59:33.206Z,46.50
2018-03-04T07:02:02.633Z,46.83
2018-03-04T07:04:31.822Z,53.83
2018-03-04T07:07:00.843Z,57.83
2018-03-04T07:09:30.155Z,53.50
2018-03-04T07:11:59.039Z,59.63
2018-03-04T07:14:28.422Z,54.37
2018-03-04T07:16:57.506Z,55.07
2018-03-04T07:19:26.230Z,51.60
2018-03-04T07:21:55.623Z,52.97
2018-03-04T07:24:24.932Z,59.23
2018-03-04T07:26:53.812Z,52.27
2018-03-04T07:29:23.128Z,52.70
2018-03-04T07:31:52.016Z,62.60
2018-03-04T07:34:20.896Z,58.00
2018-03-04T07:36:49.792Z,58.90
2018-03-04T07:39:18.671Z,59.07
2018-03-04T07:41:47.578Z,57.77
2018-03-04T07:44:17.086Z,59.93
2018-03-04T07:46:46.020Z,57.47
2018-03-04T07:49:15.471Z,56.73
2018-03-04T07:51:44.834Z,62.53
2018-03-04T07:54:14.027Z,60.13
2018-03-04T07:56:43.160Z,58.33
2018-03-04T07:59:12.466Z,54.03
2018-03-04T08:01:41.351Z,57.53
2018-03-04T08:04:10.256Z,52.87
2018-03-04T08:06:39.121Z,57.10
2018-03-04T08:09:08.216Z,56.90
2018-03-04T08:11:37.330Z,61.90
2018-03-04T08:14:06.828Z,54.57
2018-03-04T08:16:36.076Z,48.80
2018-03-04T08:19:05.019Z,58.77
2018-03-04T08:21:33.938Z,58.67
2018-03-04T08:24:02.833Z,54.97
2018-03-04T08:28:39.104Z,55.20
2018-03-04T08:31:08.557Z,56.77
2018-03-04T08:33:37.450Z,52.47
2018-03-04T08:36:06.370Z,59.17
2018-03-04T08:38:35.652Z,50.33
2018-03-04T08:41:04.762Z,56.40
2018-03-04T08:43:33.856Z,57.20
2018-03-04T08:46:03.158Z,51.30
2018-03-04T08:48:32.047Z,57.50
2018-03-04T08:51:01.252Z,54.60
2018-03-04T08:53:30.646Z,54.17
2018-03-04T08:55:59.743Z,60.20
2018-03-04T08:58:28.642Z,56.03
2018-03-04T09:00:57.748Z,56.80
2018-03-04T09:03:26.640Z,52.17
2018-03-04T09:05:55.822Z,62.47
2018-03-04T09:08:25.023Z,51.23
2018-03-04T09:10:53.950Z,57.80
2018-03-04T09:13:22.998Z,56.80
2018-03-04T09:15:52.671Z,61.37
2018-03-04T09:18:21.796Z,59.13
2018-03-04T09:20:50.881Z,55.03
2018-03-04T09:23:20.414Z,63.10
2018-03-04T09:25:50.313Z,58.27
2018-03-04T09:28:19.186Z,66.50
2018-03-04T09:30:48.098Z,59.07
2018-03-04T09:33:17.046Z,63.13
2018-03-04T09:35:47.725Z,59.73
2018-03-04T09:38:16.642Z,54.20
2018-03-04T09:40:46.723Z,63.10
2018-03-04T09:43:15.622Z,58.00
2018-03-04T09:45:44.921Z,58.10
2018-03-04T09:48:13.964Z,60.83
2018-03-04T09:50:44.237Z,60.20
2018-03-04T09:53:13.440Z,58.17
2018-03-04T09:55:42.522Z,64.10
2018-03-04T09:58:11.358Z,56.13
2018-03-04T10:00:40.927Z,61.50
2018-03-04T10:03:10.022Z,60.30
2018-03-04T10:05:38.913Z,64.63
2018-03-04T10:08:08.006Z,59.37
2018-03-04T10:10:37.269Z,68.90
2018-03-04T10:13:06.402Z,65.13
2018-03-04T10:15:35.526Z,62.73
2018-03-04T10:18:04.591Z,60.00
2018-03-04T10:20:33.421Z,59.97
2018-03-04T10:23:02.571Z,64.43
2018-03-04T10:25:32.012Z,68.13
2018-03-04T10:28:01.177Z,77.80
2018-03-04T10:30:30.272Z,66.67
2018-03-04T10:32:59.233Z,76.93
2018-03-04T10:35:28.257Z,68.00
2018-03-04T10:37:57.355Z,66.90
2018-03-04T10:40:26.443Z,67.83
2018-03-04T10:42:55.329Z,62.87
2018-03-04T10:45:24.461Z,74.60
2018-03-04T10:47:53.734Z,71.97
2018-03-04T10:50:23.034Z,74.20
2018-03-04T10:52:52.081Z,70.30
2018-03-04T10:55:21.219Z,74.00
2018-03-04T10:57:50.320Z,79.27
2018-03-04T11:00:23.438Z,68.83
2018-03-04T11:02:57.111Z,67.37
2018-03-04T11:05:26.022Z,76.10
2018-03-04T11:07:55.091Z,68.10
2018-03-04T11:10:24.364Z,68.53
2018-03-04T11:12:53.386Z,77.27
2018-03-04T11:15:22.389Z,73.27
2018-03-04T11:17:51.469Z,80.40
2018-03-04T11:20:20.526Z,70.07
2018-03-04T11:22:49.461Z,74.77
2018-03-04T11:25:18.638Z,78.40
2018-03-04T11:27:47.866Z,75.33
2018-03-04T11:30:16.947Z,80.73
2018-03-04T11:32:45.851Z,96.43
2018-03-04T11:35:15.454Z,75.57
2018-03-04T11:37:45.361Z,86.37
2018-03-04T11:40:14.582Z,79.40
2018-03-04T11:42:44.745Z,78.50
2018-03-04T11:45:14.199Z,75.03
2018-03-04T11:47:43.077Z,77.73
2018-03-04T11:50:12.171Z,80.20
2018-03-04T11:52:41.454Z,80.73
2018-03-04T11:55:10.567Z,86.57
2018-03-04T11:57:40.462Z,80.90
2018-03-04T12:00:10.356Z,76.70
2018-03-04T12:02:40.147Z,87.50
2018-03-04T12:05:09.204Z,80.27
2018-03-04T12:07:38.294Z,84.83
2018-03-04T12:10:07.174Z,85.27
2018-03-04T12:12:36.068Z,92.40
2018-03-04T12:15:05.372Z,80.27
2018-03-04T12:17:34.431Z,74.90
2018-03-04T12:20:03.549Z,79.83
2018-03-04T12:22:32.391Z,73.37
2018-03-04T12:25:01.505Z,88.60
2018-03-04T12:27:30.648Z,82.60
2018-03-04T12:29:59.953Z,78.60
2018-03-04T12:32:29.248Z,89.47
2018-03-04T12:34:58.132Z,80.13
2018-03-04T12:37:27.283Z,87.03
2018-03-04T12:39:56.299Z,73.80
2018-03-04T12:42:25.432Z,86.93
2018-03-04T12:44:55.651Z,77.37
2018-03-04T12:47:24.836Z,87.63
2018-03-04T12:49:56.322Z,84.87
2018-03-04T12:52:25.507Z,84.23
2018-03-04T12:54:54.998Z,84.40
2018-03-04T12:57:24.292Z,84.20
2018-03-04T12:59:55.108Z,82.20
2018-03-04T13:02:26.469Z,72.80
2018-03-04T13:04:56.298Z,81.90
2018-03-04T13:07:25.245Z,81.63
2018-03-04T13:09:54.431Z,78.93
2018-03-04T13:12:23.581Z,78.73
2018-03-04T13:14:52.665Z,79.03
2018-03-04T13:17:21.764Z,82.47
2018-03-04T13:19:51.083Z,85.73
2018-03-04T13:22:20.197Z,108.37
2018-03-04T13:24:49.042Z,87.47
2018-03-04T13:27:17.931Z,86.47
2018-03-04T13:29:46.840Z,85.53
2018-03-04T13:32:16.143Z,87.80
2018-03-04T13:34:45.773Z,88.03
2018-03-04T13:37:17.166Z,88.73
2018-03-04T13:39:46.692Z,84.57
2018-03-04T13:42:15.792Z,84.60
2018-03-04T13:44:44.754Z,91.53
2018-03-04T13:47:13.568Z,85.90
2018-03-04T13:49:46.155Z,82.93
2018-03-04T13:52:15.240Z,84.83
2018-03-04T13:54:44.548Z,78.53
2018-03-04T13:57:13.391Z,86.13
2018-03-04T13:59:42.929Z,84.13
2018-03-04T14:02:11.854Z,81.03
2018-03-04T14:04:40.714Z,77.43
2018-03-04T14:07:10.149Z,87.00
2018-03-04T14:09:39.112Z,81.07
2018-03-04T14:12:08.422Z,78.93
2018-03-04T14:14:37.516Z,74.97
2018-03-04T14:17:06.580Z,82.70
2018-03-04T14:19:35.406Z,82.03
2018-03-04T14:22:04.437Z,75.93
2018-03-04T14:24:33.280Z,76.40
2018-03-04T14:27:02.491Z,76.90
2018-03-04T14:29:31.475Z,77.23
2018-03-04T14:32:00.565Z,71.93
2018-03-04T14:34:30.314Z,69.40
2018-03-04T14:36:59.134Z,80.93
2018-03-04T14:39:28.224Z,72.23
2018-03-04T14:41:57.079Z,78.00
2018-03-04T14:44:30.830Z,72.33
2018-03-04T14:47:00.654Z,74.00
2018-03-04T14:49:29.552Z,76.07
2018-03-04T14:51:58.699Z,69.83
2018-03-04T14:54:27.688Z,75.43
2018-03-04T14:56:57.458Z,75.80
2018-03-04T14:59:26.239Z,69.00
2018-03-04T15:01:55.226Z,83.90
2018-03-04T15:04:24.119Z,73.33
2018-03-04T15:06:53.019Z,75.43
2018-03-04T15:09:21.929Z,70.73
2018-03-04T15:11:51.003Z,69.87
2018-03-04T15:14:20.312Z,65.60
2018-03-04T15:16:49.397Z,82.30
2018-03-04T15:19:18.702Z,68.93
2018-03-04T15:21:48.226Z,65.07
2018-03-04T15:24:16.874Z,77.23
2018-03-04T15:26:45.815Z,67.60
2018-03-04T15:29:14.582Z,73.40
2018-03-04T15:31:43.900Z,75.10
2018-03-04T15:34:13.474Z,80.60
2018-03-04T15:36:42.605Z,74.80
2018-03-04T15:39:11.357Z,76.13
2018-03-04T15:41:40.317Z,73.07
2018-03-04T15:44:14.772Z,75.93
2018-03-04T15:46:43.999Z,78.07
2018-03-04T15:49:13.281Z,73.10
2018-03-04T15:51:42.801Z,76.37
2018-03-04T15:54:12.997Z,69.60
2018-03-04T15:56:41.830Z,72.50
2018-03-04T15:59:10.893Z,75.60
2018-03-04T16:01:40.235Z,78.77
2018-03-04T16:04:09.155Z,74.97
2018-03-04T16:06:38.239Z,78.63
2018-03-04T16:09:07.158Z,83.07
2018-03-04T16:11:36.623Z,75.77
2018-03-04T16:14:05.595Z,76.93
2018-03-04T16:16:34.650Z,73.47
2018-03-04T16:19:03.546Z,91.30
2018-03-04T16:21:32.432Z,82.77
2018-03-04T16:24:01.521Z,79.83
2018-03-04T16:26:30.507Z,72.43
2018-03-04T16:29:00.155Z,78.30
2018-03-04T16:31:29.200Z,83.57
2018-03-04T16:33:58.049Z,79.50
2018-03-04T16:36:27.056Z,84.17
2018-03-04T16:38:56.143Z,78.00
2018-03-04T16:41:25.389Z,77.13
2018-03-04T16:43:55.535Z,78.37
2018-03-04T16:46:24.699Z,88.43
2018-03-04T16:48:53.495Z,75.07
2018-03-04T16:51:22.800Z,78.90
2018-03-04T16:53:52.103Z,71.13
2018-03-04T16:56:21.199Z,85.43
2018-03-04T16:58:50.086Z,81.00
2018-03-04T17:01:18.981Z,78.17
2018-03-04T17:03:48.093Z,76.13
2018-03-04T17:06:17.367Z,73.27
2018-03-04T17:08:46.687Z,75.20
2018-03-04T17:11:15.613Z,77.17
2018-03-04T17:13:44.455Z,82.17
2018-03-04T17:16:13.390Z,71.97
2018-03-04T17:18:42.237Z,89.10
2018-03-04T17:21:13.586Z,125.77
2018-03-04T17:23:42.909Z,102.43
2018-03-04T17:26:11.771Z,84.57
2018-03-04T17:28:40.658Z,64.13
2018-03-04T17:31:09.755Z,60.33
2018-03-04T17:33:38.855Z,71.13
2018-03-04T17:36:08.124Z,68.07
2018-03-04T17:38:37.245Z,64.87
2018-03-04T17:41:06.479Z,67.90
2018-03-04T17:43:35.644Z,64.20
2018-03-04T17:46:04.515Z,63.60
2018-03-04T17:48:33.314Z,62.03
2018-03-04T17:51:02.522Z,66.03
2018-03-04T17:53:31.615Z,62.90
2018-03-04T17:56:00.502Z,63.20
2018-03-04T17:58:29.392Z,66.57
2018-03-04T18:00:58.491Z,64.10
2018-03-04T18:03:27.382Z,66.90
2018-03-04T18:05:56.434Z,63.83
2018-03-04T18:08:25.651Z,68.37
2018-03-04T18:10:54.718Z,69.20
2018-03-04T18:13:23.847Z,65.57
2018-03-04T18:15:52.696Z,64.20
2018-03-04T18:18:21.821Z,66.53
2018-03-04T18:20:50.842Z,65.43
2018-03-04T18:23:19.816Z,63.37
2018-03-04T18:25:49.038Z,71.17
2018-03-04T18:28:18.130Z,62.90
2018-03-04T18:30:47.695Z,76.90
2018-03-04T18:33:16.535Z,60.70
2018-03-04T18:35:45.819Z,59.87
2018-03-04T18:38:14.918Z,65.73
2018-03-04T18:40:43.814Z,60.67
2018-03-04T18:43:13.092Z,61.13
2018-03-04T18:45:42.200Z,66.00
2018-03-04T18:48:11.506Z,70.57
2018-03-04T18:50:40.491Z,65.53
2018-03-04T18:53:09.234Z,73.23
2018-03-04T18:55:38.445Z,67.07
2018-03-04T18:58:07.610Z,61.80
2018-03-04T19:00:36.572Z,73.93
2018-03-04T19:03:06.842Z,70.73
2018-03-04T19:05:35.957Z,76.47
2018-03-04T19:08:04.925Z,75.30
2018-03-04T19:10:33.940Z,69.87
2018-03-04T19:13:02.868Z,75.40
2018-03-04T19:15:31.953Z,77.50
2018-03-04T19:18:00.853Z,78.73
2018-03-04T19:20:30.152Z,74.93
2018-03-04T19:22:59.266Z,72.77
2018-03-04T19:25:28.556Z,75.57
2018-03-04T19:27:57.711Z,74.37
2018-03-04T19:30:26.788Z,80.33
2018-03-04T19:32:55.619Z,82.57
2018-03-04T19:35:24.721Z,75.57
2018-03-04T19:37:53.815Z,73.13
2018-03-04T19:40:23.121Z,76.23
2018-03-04T19:42:52.489Z,81.73
2018-03-04T19:45:21.708Z,78.07
2018-03-04T19:47:50.796Z,78.43
2018-03-04T19:50:19.903Z,81.40
2018-03-04T19:52:48.760Z,83.10
2018-03-04T19:55:18.032Z,74.43
2018-03-04T19:57:46.998Z,73.17
2018-03-04T20:00:16.690Z,76.80
2018-03-04T20:02:45.918Z,80.07
2018-03-04T20:05:15.080Z,80.90
2018-03-04T20:07:44.769Z,82.47
2018-03-04T20:10:14.089Z,91.80
2018-03-04T20:12:43.375Z,90.30
2018-03-04T20:15:13.013Z,82.57
2018-03-04T20:17:41.908Z,83.07
2018-03-04T20:20:12.022Z,84.20
2018-03-04T20:22:41.288Z,84.23
2018-03-04T20:25:10.209Z,83.30
2018-03-04T20:27:39.309Z,85.57
2018-03-04T20:30:08.205Z,74.67
2018-03-04T20:32:37.089Z,76.07
2018-03-04T20:35:06.495Z,76.13
2018-03-04T20:37:35.439Z,75.60
2018-03-04T20:40:04.322Z,77.03
2018-03-04T20:42:33.363Z,75.10
2018-03-04T20:45:02.873Z,82.63
2018-03-04T20:47:32.845Z,93.33
2018-03-04T20:50:01.859Z,87.13
2018-03-04T20:52:30.742Z,82.17
2018-03-04T20:54:59.812Z,81.83
2018-03-04T20:57:29.587Z,87.37
2018-03-04T20:59:58.261Z,78.83
2018-03-04T21:02:31.634Z,85.73
2018-03-04T21:05:00.799Z,83.33
2018-03-04T21:07:29.600Z,72.37
2018-03-04T21:09:58.805Z,78.50
2018-03-04T21:12:27.626Z,84.70
2018-03-04T21:14:56.515Z,89.53
2018-03-04T21:17:26.678Z,79.77
2018-03-04T21:19:55.328Z,78.10
2018-03-04T21:22:24.648Z,79.93
2018-03-04T21:24:53.472Z,76.50
2018-03-04T21:27:22.616Z,79.37
2018-03-04T21:29:51.435Z,72.80
2018-03-04T21:32:20.343Z,75.93
2018-03-04T21:34:50.096Z,76.57
2018-03-04T21:37:19.816Z,79.60
2018-03-04T21:39:49.566Z,90.70
2018-03-04T21:42:18.556Z,82.23
2018-03-04T21:44:47.971Z,88.47
2018-03-04T21:47:17.218Z,79.13
2018-03-04T21:49:46.303Z,71.73
2018-03-04T21:52:15.407Z,72.97
2018-03-04T21:54:44.502Z,80.57
2018-03-04T21:57:13.594Z,76.07
2018-03-04T21:59:42.689Z,75.40
2018-03-04T22:02:18.493Z,75.40
2018-03-04T22:04:47.495Z,75.87
2018-03-04T22:07:16.323Z,77.93
2018-03-04T22:09:45.527Z,72.83
2018-03-04T22:12:14.515Z,79.13
2018-03-04T22:14:43.387Z,72.37
2018-03-04T22:17:12.473Z,80.73
2018-03-04T22:19:41.586Z,77.43
2018-03-04T22:22:10.489Z,77.87
2018-03-04T22:24:39.567Z,79.53
2018-03-04T22:27:08.515Z,68.07
2018-03-04T22:29:37.565Z,74.70
2018-03-04T22:32:06.398Z,82.70
2018-03-04T22:34:35.346Z,80.10
2018-03-04T22:37:04.244Z,71.60
2018-03-04T22:39:33.130Z,71.90
2018-03-04T22:42:02.228Z,67.53
2018-03-04T22:44:31.107Z,73.17
2018-03-04T22:47:00.018Z,74.00
2018-03-04T22:49:29.034Z,82.17
2018-03-04T22:51:58.318Z,69.87
2018-03-04T22:54:27.705Z,81.13
2018-03-04T22:56:56.424Z,74.47
2018-03-04T22:59:25.483Z,65.87
2018-03-04T23:01:54.364Z,79.07
2018-03-04T23:04:23.458Z,74.37
2018-03-04T23:06:52.564Z,73.53
2018-03-04T23:09:21.574Z,79.30
2018-03-04T23:11:51.983Z,71.70
2018-03-04T23:14:21.130Z,76.30
2018-03-04T23:16:50.172Z,76.23
2018-03-04T23:19:19.034Z,71.50
2018-03-04T23:21:48.157Z,67.70
2018-03-04T23:24:17.102Z,77.47
2018-03-04T23:26:46.511Z,68.33
2018-03-04T23:29:15.439Z,66.37
2018-03-04T23:31:44.535Z,73.77
2018-03-04T23:34:13.429Z,72.93
2018-03-04T23:36:42.310Z,74.90
2018-03-04T23:39:11.259Z,69.30
2018-03-04T23:41:40.098Z,64.87
2018-03-04T23:44:09.187Z,69.10
2018-03-04T23:46:38.295Z,71.40
2018-03-04T23:49:07.318Z,78.30
2018-03-04T23:51:36.258Z,69.37
2018-03-04T23:54:05.073Z,65.20
2018-03-04T23:56:33.806Z,78.90
2018-03-04T23:59:02.638Z,89.93
